Happy Valentine's Day! 

Flight Track Log - Related Links

Times and Time Zones

All times are in EDT time to prevent confusion due to time zone crossing. See the SWA1182 flight status page for this flight to view local times or setup timezone preferences in your user account.


Time Position Orientation Groundspeed Altitude Reporting Facility
EDT Latitude Longitude Course Direction KTS MPH feet Rate Location/Type
Sun 02:05:47 PM 41.7667 -87.7667 223° Southwest 145 167 1,800  Level Chicago TRACON
Sun 02:06:32 PM 41.7489 -87.7892 223° Southwest 178 205 2,800 1,794 Climbing Chicago Center
Sun 02:07:34 PM 41.6953 -87.8383 214° Southwest 240 276 5,000 1,403 Climbing Chicago Center
Sun 02:08:36 PM 41.6192 -87.8881 206° Southwest 251 289 5,700 2,177 Climbing Chicago Center
Sun 02:09:38 PM 41.5503 -87.9336 206° Southwest 267 307 9,500 3,290 Climbing Chicago Center
Sun 02:10:40 PM 41.4744 -87.9850 207° Southwest 297 342 12,500 3,216 Climbing Chicago Center
Sun 02:11:43 PM 41.3772 -88.0442 205° Southwest 346 398 16,200 3,264 Climbing Chicago Center
Sun 02:12:45 PM 41.2775 -88.0739 193° South 365 420 19,300 2,855 Climbing Chicago Center
Sun 02:13:47 PM 41.1703 -88.0928 188° South 388 447 22,100 2,855 Climbing Chicago Center
Sun 02:14:49 PM 41.0583 -88.1067 185° South 399 459 25,200 1,887 Climbing Chicago Center
Sun 02:15:51 PM 40.9261 -88.1239 186° South 400 460 26,000 387 Climbing Chicago Center
Sun 02:16:53 PM 40.8275 -88.1803 203° Southwest 385 443 26,000  Level Chicago Center
Sun 02:17:55 PM 40.7286 -88.2383 204° Southwest 387 445 26,000  Level Chicago Center
Sun 02:18:57 PM 40.6286 -88.2947 203° Southwest 391 450 26,000  Level Chicago Center
Sun 02:19:59 PM 40.5297 -88.3525 204° Southwest 391 450 26,000  Level Chicago Center
Sun 02:21:01 PM 40.4306 -88.4100 204° Southwest 391 450 26,000  Level Chicago Center
Sun 02:22:03 PM 40.3111 -88.4789 204° Southwest 392 451 26,000  Level Chicago Center
Sun 02:23:05 PM 40.2222 -88.5286 203° Southwest 392 451 26,000  Level Chicago Center
Sun 02:24:07 PM 40.1211 -88.5867 204° Southwest 393 452 26,000  Level Chicago Center
Sun 02:25:10 PM 40.0011 -88.6539 203° Southwest 390 449 26,000  Level Chicago Center
Sun 02:26:12 PM 39.9011 -88.7114 204° Southwest 392 451 26,000  Level Chicago Center
Sun 02:27:14 PM 39.7919 -88.7375 190° South 399 459 26,000  Level Chicago Center
Sun 02:28:10 PM 39.6814 -88.7486 184° South 399 459 26,000  Level Kansas City Center
Sun 02:29:12 PM 39.5706 -88.7622 185° South 398 458 26,000  Level Kansas City Center
Sun 02:30:14 PM 39.4617 -88.7742 185° South 397 457 26,000  Level Kansas City Center
Sun 02:31:16 PM 39.3528 -88.7897 186° South 394 453 26,000 -242 Level Kansas City Center
Sun 02:32:18 PM 39.2808 -88.8894 227° Southwest 378 435 25,500 -1,403 Descending Kansas City Center
Sun 02:33:20 PM 39.2097 -88.9925 228° Southwest 383 441 23,100 -2,352 Descending Kansas City Center
Sun 02:34:23 PM 39.1272 -89.1111 228° Southwest 375 432 20,600 -2,256 Descending Kansas City Center
Sun 02:35:25 PM 39.0767 -89.2292 241° Southwest 355 409 18,400 -1,984 Descending Kansas City Center
Sun 02:36:27 PM 39.0506 -89.3486 254° West 348 400 16,500 -1,984 Descending Kansas City Center
Sun 02:37:29 PM 39.0231 -89.4739 254° West 341 392 14,300 -2,032 Descending Kansas City Center
Sun 02:38:31 PM 38.9964 -89.5864 253° West 333 383 12,300 -2,032 Descending Kansas City Center
Sun 02:39:33 PM 38.9300 -89.6772 227° Southwest 323 372 10,100 -1,113 Descending Kansas City Center
Sun 02:40:35 PM 38.8719 -89.7500 224° Southwest 304 350 10,000 -677 Descending Kansas City Center
Sun 02:41:37 PM 38.8211 -89.8150 225° Southwest 266 306 8,700 -1,452 Descending Kansas City Center
Sun 02:42:39 PM 38.7794 -89.8886 234° Southwest 257 296 7,000 -1,306 Descending Kansas City Center
Sun 02:43:41 PM 38.7397 -89.9661 237° Southwest 258 297 6,000 -1,113 Descending Kansas City Center
Sun 02:44:43 PM 38.6981 -90.0433 235° Southwest 261 300 4,700 -1,210 Descending Kansas City Center
Sun 02:45:45 PM 38.6778 -90.1319 254° West 263 303 3,500 -774 Descending Kansas City Center
Sun 02:46:47 PM 38.6792 -90.2200 271° West 234 269 3,100 -774 Descending Kansas City Center
Sun 02:47:49 PM 38.7072 -90.2739 304° West 202 232 1,900 -968 Descending Kansas City Center
Sun 02:48:51 PM 38.7283 -90.3189 301° West 167 192 1,100 -629 Descending Kansas City Center
Sun 02:49:53 PM 38.7514 -90.3656 302° West 153 176 600 -484 Descending Kansas City Center
Sun 02:51:00 PM 38.7487 -90.3700 126° Southeast  Level Estimated

Login

Don't have an account? Register now (free) for customized features, flight alerts, and more!